createdAt,value
2022-11-18T00:01:15.705Z,5.10
2022-11-18T00:03:43.668Z,5.23
2022-11-18T00:06:15.708Z,5.33
2022-11-18T00:08:43.222Z,4.77
2022-11-18T00:11:13.049Z,4.90
2022-11-18T00:13:58.854Z,5.33
2022-11-18T00:16:25.620Z,5.57
2022-11-18T00:18:52.310Z,5.27
2022-11-18T00:21:19.137Z,5.87
2022-11-18T00:23:48.161Z,5.27
2022-11-18T00:26:15.226Z,5.20
2022-11-18T00:28:42.690Z,5.23
2022-11-18T00:31:12.269Z,6.20
2022-11-18T00:33:39.149Z,5.07
2022-11-18T00:36:08.285Z,6.17
2022-11-18T00:38:34.993Z,5.50
2022-11-18T00:41:07.627Z,5.47
2022-11-18T00:43:35.170Z,5.00
2022-11-18T00:46:02.695Z,4.97
2022-11-18T00:48:30.019Z,5.13
2022-11-18T00:50:58.889Z,5.70
2022-11-18T00:53:27.034Z,5.23
2022-11-18T00:55:53.869Z,5.27
2022-11-18T00:58:20.878Z,4.83
2022-11-18T01:00:51.364Z,5.20
2022-11-18T01:03:19.596Z,4.93
2022-11-18T01:05:46.714Z,5.40
2022-11-18T01:08:14.390Z,4.60
2022-11-18T01:10:41.540Z,4.80
2022-11-18T01:13:23.744Z,5.17
2022-11-18T01:16:00.721Z,5.40
2022-11-18T01:18:31.179Z,4.80
2022-11-18T01:21:02.959Z,5.33
2022-11-18T01:23:30.031Z,4.50
2022-11-18T01:25:56.773Z,4.67
2022-11-18T01:28:24.250Z,4.80
2022-11-18T01:30:51.500Z,4.23
2022-11-18T01:33:18.233Z,4.87
2022-11-18T01:35:45.411Z,5.00
2022-11-18T01:38:13.770Z,4.63
2022-11-18T01:40:40.891Z,4.07
2022-11-18T01:43:14.158Z,4.37
2022-11-18T01:45:42.966Z,4.50
2022-11-18T01:48:15.614Z,4.73
2022-11-18T01:50:47.543Z,5.13
2022-11-18T01:53:21.884Z,5.00
2022-11-18T01:55:52.072Z,4.43
2022-11-18T01:58:25.835Z,4.70
2022-11-18T02:00:53.348Z,4.93
2022-11-18T02:03:21.414Z,5.00
2022-11-18T02:05:50.207Z,4.10
2022-11-18T02:08:18.824Z,5.00
2022-11-18T02:10:45.834Z,5.10
2022-11-18T02:13:14.082Z,6.80
2022-11-18T02:15:46.566Z,4.43
2022-11-18T02:18:22.597Z,4.47
2022-11-18T02:20:55.362Z,4.63
2022-11-18T02:23:50.535Z,4.10
2022-11-18T02:26:26.116Z,4.30
2022-11-18T02:29:10.125Z,5.50
2022-11-18T02:32:00.552Z,4.23
2022-11-18T02:34:47.896Z,5.40
2022-11-18T02:37:25.147Z,4.53
2022-11-18T02:40:00.353Z,4.53
2022-11-18T02:42:29.348Z,4.80
2022-11-18T02:45:04.078Z,5.40
2022-11-18T02:47:32.876Z,4.47
2022-11-18T02:50:07.279Z,4.03
2022-11-18T02:52:37.222Z,4.50
2022-11-18T02:55:08.876Z,5.07
2022-11-18T02:57:37.543Z,4.43
2022-11-18T03:00:05.061Z,5.10
2022-11-18T03:02:43.937Z,4.70
2022-11-18T03:05:35.252Z,5.60
2022-11-18T03:08:10.626Z,5.40
2022-11-18T03:11:03.085Z,4.70
2022-11-18T03:13:36.444Z,5.23
2022-11-18T03:16:06.884Z,5.30
2022-11-18T03:18:59.765Z,4.80
2022-11-18T03:21:36.267Z,5.00
2022-11-18T03:24:25.606Z,4.97
2022-11-18T03:27:00.515Z,5.17
2022-11-18T03:29:36.204Z,5.93
2022-11-18T03:32:27.290Z,4.93
2022-11-18T03:35:05.443Z,5.00
2022-11-18T03:37:34.323Z,5.10
2022-11-18T03:40:11.777Z,5.00
2022-11-18T03:42:44.928Z,5.47
2022-11-18T03:45:19.428Z,5.60
2022-11-18T03:47:55.211Z,5.47
2022-11-18T03:50:30.762Z,5.20
2022-11-18T03:52:59.154Z,4.77
2022-11-18T03:55:30.941Z,4.87
2022-11-18T03:58:15.442Z,5.13
2022-11-18T04:00:45.762Z,4.93
2022-11-18T04:03:13.080Z,5.70
2022-11-18T04:05:42.351Z,4.90
2022-11-18T04:08:33.915Z,4.80
2022-11-18T04:11:41.584Z,4.70
2022-11-18T04:14:09.939Z,4.43
2022-11-18T04:16:43.704Z,4.67
2022-11-18T04:19:11.824Z,4.60
2022-11-18T04:21:38.535Z,5.00
2022-11-18T04:24:05.588Z,5.30
2022-11-18T04:26:32.363Z,4.33
2022-11-18T04:28:59.123Z,5.63
2022-11-18T04:31:25.888Z,4.43
2022-11-18T04:33:52.681Z,4.47
2022-11-18T04:36:19.935Z,3.83
2022-11-18T04:38:46.793Z,4.40
2022-11-18T04:41:13.642Z,4.50
2022-11-18T04:43:41.591Z,4.47
2022-11-18T04:46:08.332Z,5.10
2022-11-18T04:48:35.175Z,4.40
2022-11-18T04:51:05.463Z,5.23
2022-11-18T04:53:32.524Z,5.00
2022-11-18T04:56:07.258Z,5.23
2022-11-18T04:58:33.968Z,4.23
2022-11-18T05:01:00.677Z,4.67
2022-11-18T05:03:27.552Z,5.33
2022-11-18T05:05:54.183Z,4.43
2022-11-18T05:08:20.887Z,6.87
2022-11-18T05:10:47.611Z,5.50
2022-11-18T05:13:14.296Z,4.63
2022-11-18T05:15:40.960Z,4.87
2022-11-18T05:18:11.087Z,4.77
2022-11-18T05:20:41.621Z,5.30
2022-11-18T05:23:08.566Z,4.30
2022-11-18T05:25:36.113Z,5.03
2022-11-18T05:28:02.990Z,4.70
2022-11-18T05:30:30.002Z,4.50
2022-11-18T05:32:56.676Z,4.20
2022-11-18T05:35:23.312Z,5.10
2022-11-18T05:37:50.415Z,4.97
2022-11-18T05:40:17.556Z,4.40
2022-11-18T05:43:02.979Z,5.13
2022-11-18T05:45:29.684Z,4.70
2022-11-18T05:48:04.211Z,6.40
2022-11-18T05:50:33.196Z,5.23
2022-11-18T05:52:59.849Z,5.50
2022-11-18T05:55:34.561Z,4.90
2022-11-18T05:58:01.289Z,5.03
2022-11-18T06:00:29.282Z,5.90
2022-11-18T06:02:57.844Z,4.90
2022-11-18T06:05:26.515Z,5.30
2022-11-18T06:07:55.779Z,6.00
2022-11-18T06:10:28.165Z,5.27
2022-11-18T06:13:01.535Z,5.53
2022-11-18T06:15:33.967Z,5.23
2022-11-18T06:18:05.849Z,5.70
2022-11-18T06:20:35.617Z,5.10
2022-11-18T06:23:02.347Z,4.10
2022-11-18T06:25:29.656Z,5.40
2022-11-18T06:27:59.140Z,4.90
2022-11-18T06:30:25.953Z,4.63
2022-11-18T06:32:52.752Z,4.53
2022-11-18T06:35:19.806Z,5.67
2022-11-18T06:37:46.896Z,4.90
2022-11-18T06:40:13.889Z,4.67
2022-11-18T06:42:59.304Z,4.13
2022-11-18T06:45:27.606Z,4.63
2022-11-18T06:47:58.294Z,4.17
2022-11-18T06:50:25.001Z,4.37
2022-11-18T06:52:51.808Z,5.17
2022-11-18T06:55:18.805Z,5.03
2022-11-18T06:57:45.685Z,4.80
2022-11-18T07:00:13.100Z,4.97
2022-11-18T07:02:39.844Z,5.73
2022-11-18T07:05:06.775Z,4.37
2022-11-18T07:07:41.817Z,4.57
2022-11-18T07:10:09.685Z,5.40
2022-11-18T07:12:36.321Z,4.80
2022-11-18T07:15:03.321Z,5.60
2022-11-18T07:17:31.404Z,4.77
2022-11-18T07:19:58.141Z,5.60
2022-11-18T07:22:24.813Z,5.70
2022-11-18T07:24:51.739Z,5.40
2022-11-18T07:27:18.470Z,4.80
2022-11-18T07:29:45.352Z,5.23
2022-11-18T07:32:12.289Z,5.43
2022-11-18T07:34:38.981Z,5.23
2022-11-18T07:37:05.689Z,6.20
2022-11-18T07:39:32.430Z,5.10
2022-11-18T07:41:59.338Z,5.27
2022-11-18T07:44:26.062Z,5.00
2022-11-18T07:46:52.754Z,5.07
2022-11-18T07:49:19.857Z,5.20
2022-11-18T07:51:46.858Z,4.83
2022-11-18T07:54:17.055Z,4.97
2022-11-18T07:56:44.156Z,4.53
2022-11-18T07:59:10.861Z,5.43
2022-11-18T08:01:37.603Z,4.70
2022-11-18T08:04:10.058Z,4.60
2022-11-18T08:06:37.069Z,5.07
2022-11-18T08:09:04.986Z,6.10
2022-11-18T08:11:31.861Z,5.50
2022-11-18T08:13:58.770Z,6.80
2022-11-18T08:16:26.556Z,7.83
2022-11-18T08:18:54.230Z,7.40
2022-11-18T08:21:23.005Z,5.50
2022-11-18T08:23:54.981Z,7.97
2022-11-18T08:26:22.129Z,8.20
2022-11-18T08:28:49.290Z,5.83
2022-11-18T08:31:27.551Z,7.30
2022-11-18T08:33:59.216Z,7.43
2022-11-18T08:36:28.725Z,8.80
2022-11-18T08:39:00.472Z,8.63
2022-11-18T08:41:32.964Z,6.60
2022-11-18T08:44:01.098Z,7.03
2022-11-18T08:46:28.418Z,6.03
2022-11-18T08:48:55.316Z,6.07
2022-11-18T08:51:21.964Z,6.40
2022-11-18T08:53:48.774Z,6.50
2022-11-18T08:56:18.062Z,5.93
2022-11-18T08:58:45.607Z,5.57
2022-11-18T09:01:12.628Z,5.57
2022-11-18T09:03:39.882Z,5.83
2022-11-18T09:06:17.905Z,5.43
2022-11-18T09:08:45.050Z,6.13
2022-11-18T09:11:16.143Z,7.50
2022-11-18T09:14:14.367Z,6.50
2022-11-18T09:16:31.892Z,5.70
2022-11-18T09:19:08.535Z,5.90
2022-11-18T09:21:45.071Z,6.20
2022-11-18T09:24:11.958Z,5.90
2022-11-18T09:26:38.883Z,7.97
2022-11-18T09:29:05.821Z,7.33
2022-11-18T09:31:32.589Z,6.00
2022-11-18T09:34:00.709Z,6.37
2022-11-18T09:36:27.797Z,5.50
2022-11-18T09:38:54.643Z,5.63
2022-11-18T09:41:41.880Z,5.70
2022-11-18T09:44:11.525Z,5.83
2022-11-18T09:47:03.940Z,6.10
2022-11-18T09:49:34.260Z,5.17
2022-11-18T09:52:42.512Z,6.53
2022-11-18T09:55:18.056Z,5.70
2022-11-18T09:57:48.455Z,5.57
2022-11-18T10:00:30.274Z,5.10
2022-11-18T10:03:05.111Z,4.53
2022-11-18T10:05:43.795Z,4.60
2022-11-18T10:08:27.461Z,3.80
2022-11-18T10:10:54.048Z,4.77
2022-11-18T10:13:38.943Z,3.90
2022-11-18T10:16:20.700Z,4.00
2022-11-18T10:19:04.436Z,4.13
2022-11-18T10:22:03.109Z,4.40
2022-11-18T10:24:50.429Z,4.30
2022-11-18T10:27:18.718Z,4.43
2022-11-18T10:29:53.095Z,4.50
2022-11-18T10:32:19.996Z,4.80
2022-11-18T10:34:58.327Z,4.23
2022-11-18T10:38:05.805Z,4.60
2022-11-18T10:40:26.678Z,4.33
2022-11-18T10:42:53.568Z,5.00
2022-11-18T10:45:23.327Z,5.47
2022-11-18T10:48:18.519Z,5.40
2022-11-18T10:50:55.049Z,6.50
2022-11-18T10:53:35.616Z,6.30
2022-11-18T10:56:12.949Z,5.77
2022-11-18T10:58:50.101Z,5.57
2022-11-18T11:01:24.191Z,5.27
2022-11-18T11:04:22.076Z,5.00
2022-11-18T11:06:49.092Z,5.77
2022-11-18T11:09:15.670Z,6.03
2022-11-18T11:11:56.111Z,5.20
2022-11-18T11:14:36.163Z,4.27
2022-11-18T11:19:56.196Z,5.77
2022-11-18T11:22:23.033Z,5.60
2022-11-18T11:24:49.806Z,5.67
2022-11-18T11:30:20.656Z,6.40
2022-11-18T11:33:11.610Z,5.80
2022-11-18T11:36:00.958Z,5.20
2022-11-18T11:38:58.672Z,5.67
2022-11-18T11:41:51.893Z,6.10
2022-11-18T11:44:43.378Z,5.37
2022-11-18T11:47:47.052Z,5.37
2022-11-18T11:51:00.026Z,4.53
2022-11-18T11:54:01.968Z,4.70
2022-11-18T11:57:07.427Z,3.70
2022-11-18T11:59:52.711Z,3.77
2022-11-18T12:02:38.545Z,3.40
2022-11-18T12:05:23.161Z,3.70
2022-11-18T12:07:59.190Z,3.60
2022-11-18T12:10:42.851Z,3.60
2022-11-18T12:13:17.332Z,3.00
2022-11-18T12:16:22.749Z,3.13
2022-11-18T12:19:13.078Z,3.40
2022-11-18T12:21:43.855Z,3.43
2022-11-18T12:24:31.493Z,3.30
2022-11-18T12:27:02.648Z,2.97
2022-11-18T12:29:50.487Z,4.07
2022-11-18T12:32:42.480Z,3.50
2022-11-18T12:35:12.658Z,4.00
2022-11-18T12:37:58.582Z,4.63
2022-11-18T12:40:51.786Z,4.10
2022-11-18T12:43:48.190Z,3.30
2022-11-18T12:46:44.289Z,3.60
2022-11-18T12:49:21.522Z,3.73
2022-11-18T12:51:52.939Z,4.23
2022-11-18T12:54:26.086Z,3.77
2022-11-18T12:56:53.653Z,3.20
2022-11-18T12:59:32.146Z,4.50
2022-11-18T13:02:11.018Z,3.93
2022-11-18T13:04:45.078Z,3.90
2022-11-18T13:07:39.564Z,3.20
2022-11-18T13:10:24.935Z,2.73
2022-11-18T13:12:52.591Z,3.20
2022-11-18T13:15:38.411Z,3.17
2022-11-18T13:18:14.693Z,7.50
2022-11-18T13:20:43.023Z,4.37
2022-11-18T13:23:28.186Z,4.50
2022-11-18T13:26:03.162Z,4.40
2022-11-18T13:28:47.339Z,3.67
2022-11-18T13:31:29.973Z,3.47
2022-11-18T13:34:12.272Z,4.90
2022-11-18T13:36:44.622Z,5.97
2022-11-18T13:39:24.868Z,3.60
2022-11-18T13:42:06.511Z,4.00
2022-11-18T13:44:37.875Z,2.90
2022-11-18T13:47:35.568Z,3.73
2022-11-18T13:50:11.187Z,3.30
2022-11-18T13:53:14.827Z,3.20
2022-11-18T13:55:55.167Z,4.07
2022-11-18T13:58:55.839Z,4.03
2022-11-18T14:01:34.065Z,3.60
2022-11-18T14:04:16.300Z,3.40
2022-11-18T14:06:43.032Z,3.70
2022-11-18T14:09:29.049Z,4.07
2022-11-18T14:12:19.190Z,3.80
2022-11-18T14:14:46.600Z,2.97
2022-11-18T14:17:22.420Z,3.77
2022-11-18T14:19:51.798Z,2.97
2022-11-18T14:22:23.896Z,3.80
2022-11-18T14:24:58.752Z,2.90
2022-11-18T14:27:43.228Z,2.60
2022-11-18T14:30:42.063Z,2.90
2022-11-18T14:33:11.795Z,3.00
2022-11-18T14:35:39.945Z,2.93
2022-11-18T14:41:42.629Z,3.93
2022-11-18T14:44:13.145Z,2.60
2022-11-18T14:46:42.079Z,3.10
2022-11-18T14:49:19.051Z,2.83
2022-11-18T14:51:46.314Z,3.80
2022-11-18T14:54:17.200Z,3.27
2022-11-18T14:56:48.944Z,3.10
2022-11-18T14:59:17.594Z,3.23
2022-11-18T15:01:44.936Z,3.50
2022-11-18T15:04:14.132Z,3.30
2022-11-18T15:06:40.914Z,4.00
2022-11-18T15:09:08.113Z,3.47
2022-11-18T15:11:35.640Z,3.20
2022-11-18T15:14:02.750Z,3.10
2022-11-18T15:16:31.352Z,4.40
2022-11-18T15:19:01.055Z,3.67
2022-11-18T15:21:28.025Z,3.23
2022-11-18T15:23:54.971Z,4.77
2022-11-18T15:26:24.505Z,3.60
2022-11-18T15:28:53.857Z,4.93
2022-11-18T15:31:21.345Z,3.73
2022-11-18T15:33:50.895Z,3.57
2022-11-18T15:36:20.440Z,2.70
2022-11-18T15:39:05.872Z,3.47
2022-11-18T15:41:51.537Z,3.47
2022-11-18T15:44:38.545Z,3.50
2022-11-18T15:47:05.339Z,3.90
2022-11-18T15:49:32.243Z,3.50
2022-11-18T15:51:59.618Z,3.20
2022-11-18T15:54:26.431Z,3.63
2022-11-18T15:56:53.277Z,3.70
2022-11-18T15:59:38.609Z,3.37
2022-11-18T16:02:14.348Z,3.43
2022-11-18T16:04:40.993Z,3.40
2022-11-18T16:07:07.706Z,3.30
2022-11-18T16:09:54.339Z,3.87
2022-11-18T16:12:39.787Z,3.70
2022-11-18T16:15:25.274Z,4.23
2022-11-18T16:17:52.011Z,3.90
2022-11-18T16:20:19.144Z,4.87
2022-11-18T16:22:46.273Z,3.37
2022-11-18T16:25:13.542Z,4.33
2022-11-18T16:27:40.411Z,5.10
2022-11-18T16:30:07.473Z,7.40
2022-11-18T16:32:34.204Z,14.23
2022-11-18T16:35:01.647Z,7.70
2022-11-18T16:37:28.564Z,6.47
2022-11-18T16:39:55.225Z,4.10
2022-11-18T16:42:22.017Z,4.90
2022-11-18T16:44:48.715Z,5.00
2022-11-18T16:47:15.760Z,5.13
2022-11-18T16:49:43.212Z,4.10
2022-11-18T16:52:09.977Z,5.10
2022-11-18T16:54:43.000Z,5.83
2022-11-18T16:57:12.070Z,5.63
2022-11-18T16:59:38.998Z,5.70
2022-11-18T17:02:06.718Z,5.30
2022-11-18T17:04:36.144Z,4.70
2022-11-18T17:07:03.235Z,4.50
2022-11-18T17:09:30.156Z,5.60
2022-11-18T17:11:58.599Z,5.60
2022-11-18T17:14:25.853Z,5.93
2022-11-18T17:16:52.979Z,4.97
2022-11-18T17:19:22.462Z,5.50
2022-11-18T17:21:51.083Z,5.63
2022-11-18T17:24:23.007Z,5.70
2022-11-18T17:26:51.896Z,5.07
2022-11-18T17:29:18.817Z,6.10
2022-11-18T17:31:45.888Z,8.23
2022-11-18T17:34:14.292Z,11.40
2022-11-18T17:36:42.010Z,11.47
2022-11-18T17:39:10.793Z,13.60
2022-11-18T17:41:56.172Z,14.20
2022-11-18T17:44:22.992Z,13.30
2022-11-18T17:46:50.016Z,15.93
2022-11-18T17:49:18.505Z,16.67
2022-11-18T17:51:46.113Z,18.57
2022-11-18T17:54:14.323Z,20.30
2022-11-18T17:56:41.337Z,18.90
2022-11-18T17:59:08.395Z,20.40
2022-11-18T18:01:35.725Z,20.40
2022-11-18T18:04:03.033Z,20.67
2022-11-18T18:06:29.731Z,18.80
2022-11-18T18:08:57.518Z,17.80
2022-11-18T18:11:25.165Z,16.73
2022-11-18T18:14:11.099Z,17.47
2022-11-18T18:16:38.533Z,15.97
2022-11-18T18:19:06.612Z,18.10
2022-11-18T18:21:33.934Z,17.67
2022-11-18T18:24:00.848Z,16.53
2022-11-18T18:26:31.554Z,17.40
2022-11-18T18:28:59.887Z,16.10
2022-11-18T18:31:27.187Z,17.20
2022-11-18T18:33:53.973Z,16.13
2022-11-18T18:36:21.508Z,17.67
2022-11-18T18:38:48.411Z,16.23
2022-11-18T18:41:17.888Z,16.93
2022-11-18T18:43:45.914Z,17.13
2022-11-18T18:46:34.669Z,16.73
2022-11-18T18:49:13.616Z,15.43
2022-11-18T18:51:42.845Z,17.90
2022-11-18T18:54:20.515Z,15.53
2022-11-18T18:56:47.512Z,16.97
2022-11-18T18:59:14.149Z,17.60
2022-11-18T19:01:41.445Z,15.53
2022-11-18T19:04:12.954Z,18.27
2022-11-18T19:09:27.524Z,17.50
2022-11-18T19:12:13.122Z,19.63
2022-11-18T19:14:40.474Z,19.10
2022-11-18T19:17:11.261Z,19.40
2022-11-18T19:20:01.487Z,18.80
2022-11-18T19:22:32.367Z,17.57
2022-11-18T19:24:59.798Z,17.60
2022-11-18T19:27:27.233Z,19.83
2022-11-18T19:29:53.890Z,19.73
2022-11-18T19:32:21.086Z,17.37
2022-11-18T19:34:47.950Z,18.23
2022-11-18T19:37:14.625Z,17.93
2022-11-18T19:39:41.464Z,18.57
2022-11-18T19:42:10.759Z,19.37
2022-11-18T19:44:38.178Z,18.10
2022-11-18T19:47:05.102Z,18.67
2022-11-18T19:49:31.859Z,20.40
2022-11-18T19:51:58.545Z,17.70
2022-11-18T19:54:25.247Z,18.30
2022-11-18T19:56:52.127Z,18.13
2022-11-18T19:59:19.057Z,17.03
2022-11-18T20:01:46.061Z,17.10
2022-11-18T20:04:12.777Z,15.50
2022-11-18T20:06:40.486Z,15.00
2022-11-18T20:09:08.843Z,15.80
2022-11-18T20:11:36.594Z,15.30
2022-11-18T20:14:03.788Z,13.83
2022-11-18T20:16:30.762Z,13.73
2022-11-18T20:19:07.880Z,15.27
2022-11-18T20:21:38.840Z,15.70
2022-11-18T20:24:10.547Z,15.70
2022-11-18T20:26:38.462Z,16.20
2022-11-18T20:29:07.055Z,15.93
2022-11-18T20:31:34.554Z,16.97
2022-11-18T20:34:01.606Z,16.40
2022-11-18T20:36:33.256Z,15.43
2022-11-18T20:39:08.093Z,14.97
2022-11-18T20:41:36.183Z,16.10
2022-11-18T20:44:03.108Z,14.33
2022-11-18T20:46:29.752Z,14.90
2022-11-18T20:48:56.483Z,16.53
2022-11-18T20:51:27.873Z,15.73
2022-11-18T20:53:56.502Z,15.73
2022-11-18T20:56:27.639Z,15.50
2022-11-18T20:58:57.040Z,14.77
2022-11-18T21:01:26.783Z,15.63
2022-11-18T21:03:55.607Z,14.17
2022-11-18T21:06:25.114Z,14.50
2022-11-18T21:08:57.675Z,13.67
2022-11-18T21:11:25.369Z,13.63
2022-11-18T21:14:10.769Z,13.93
2022-11-18T21:16:37.581Z,13.87
2022-11-18T21:19:04.700Z,13.27
2022-11-18T21:21:51.899Z,13.23
2022-11-18T21:24:33.333Z,11.40
2022-11-18T21:27:01.703Z,11.80
2022-11-18T21:29:31.203Z,12.80
2022-11-18T21:32:01.389Z,12.73
2022-11-18T21:34:28.976Z,12.17
2022-11-18T21:36:55.837Z,12.63
2022-11-18T21:39:24.216Z,10.83
2022-11-18T21:41:55.606Z,13.30
2022-11-18T21:44:23.512Z,12.37
2022-11-18T21:46:50.409Z,13.80
2022-11-18T21:49:17.630Z,14.43
2022-11-18T21:51:45.331Z,13.50
2022-11-18T21:54:12.854Z,12.70
2022-11-18T21:56:39.722Z,13.20
2022-11-18T21:59:07.621Z,12.77
2022-11-18T22:01:34.637Z,12.53
2022-11-18T22:04:03.744Z,12.40
2022-11-18T22:06:33.559Z,11.90
2022-11-18T22:09:01.460Z,12.57
2022-11-18T22:11:28.784Z,12.73
2022-11-18T22:13:55.751Z,11.97
2022-11-18T22:16:24.002Z,10.27
2022-11-18T22:18:58.045Z,11.80
2022-11-18T22:21:28.100Z,11.83
2022-11-18T22:23:59.757Z,11.60
2022-11-18T22:26:26.930Z,10.67
2022-11-18T22:28:56.058Z,12.33
2022-11-18T22:31:24.348Z,11.83
2022-11-18T22:33:52.174Z,12.73
2022-11-18T22:36:21.444Z,15.27
2022-11-18T22:38:48.393Z,12.73
2022-11-18T22:41:36.454Z,12.40
2022-11-18T22:44:07.737Z,13.30
2022-11-18T22:46:39.417Z,14.10
2022-11-18T22:49:07.619Z,12.87
2022-11-18T22:51:35.506Z,12.47
2022-11-18T22:56:49.156Z,12.13
2022-11-18T22:59:15.806Z,14.03
2022-11-18T23:01:42.597Z,14.50
2022-11-18T23:04:09.382Z,13.93
2022-11-18T23:06:36.320Z,14.60
2022-11-18T23:09:03.392Z,13.53
2022-11-18T23:11:49.410Z,13.30
2022-11-18T23:14:16.289Z,13.53
2022-11-18T23:16:43.468Z,13.60
2022-11-18T23:19:14.944Z,11.30
2022-11-18T23:21:42.767Z,12.60
2022-11-18T23:24:17.471Z,13.00
2022-11-18T23:26:44.978Z,12.77
2022-11-18T23:29:12.847Z,13.20
2022-11-18T23:31:43.909Z,12.83
2022-11-18T23:34:12.076Z,11.90
2022-11-18T23:36:39.400Z,12.60
2022-11-18T23:39:06.267Z,12.13
2022-11-18T23:41:32.926Z,11.87
2022-11-18T23:43:59.767Z,11.30
2022-11-18T23:46:27.674Z,12.50
2022-11-18T23:48:54.892Z,11.70
2022-11-18T23:51:23.641Z,12.53
2022-11-18T23:53:55.472Z,11.23
2022-11-18T23:56:25.111Z,13.03
2022-11-18T23:58:53.212Z,11.00
